sensor_id;sensor_type;location;lat;lon;timestamp;P1;durP1;ratioP1;P2;durP2;ratioP2
45338;SDS011;31071;51.478;5.710;2022-10-16T00:01:15;6.60;;;4.25;;
45338;SDS011;31071;51.478;5.710;2022-10-16T00:03:42;9.35;;;4.35;;
45338;SDS011;31071;51.478;5.710;2022-10-16T00:06:09;6.18;;;3.95;;
45338;SDS011;31071;51.478;5.710;2022-10-16T00:08:48;5.28;;;3.72;;
45338;SDS011;31071;51.478;5.710;2022-10-16T00:13:48;5.85;;;3.60;;
45338;SDS011;31071;51.478;5.710;2022-10-16T00:16:15;6.30;;;3.78;;
45338;SDS011;31071;51.478;5.710;2022-10-16T00:18:41;5.05;;;3.60;;
45338;SDS011;31071;51.478;5.710;2022-10-16T00:21:12;5.70;;;3.70;;
45338;SDS011;31071;51.478;5.710;2022-10-16T00:23:40;7.07;;;3.20;;
45338;SDS011;31071;51.478;5.710;2022-10-16T00:26:07;6.63;;;3.53;;
45338;SDS011;31071;51.478;5.710;2022-10-16T00:28:34;4.35;;;3.40;;
45338;SDS011;31071;51.478;5.710;2022-10-16T00:31:08;5.88;;;3.60;;
45338;SDS011;31071;51.478;5.710;2022-10-16T00:33:35;5.05;;;3.10;;
45338;SDS011;31071;51.478;5.710;2022-10-16T00:36:02;5.82;;;3.47;;
45338;SDS011;31071;51.478;5.710;2022-10-16T00:38:29;7.68;;;3.33;;
45338;SDS011;31071;51.478;5.710;2022-10-16T00:40:55;8.43;;;3.65;;
45338;SDS011;31071;51.478;5.710;2022-10-16T00:48:50;4.90;;;3.03;;
45338;SDS011;31071;51.478;5.710;2022-10-16T00:51:28;4.07;;;3.15;;
45338;SDS011;31071;51.478;5.710;2022-10-16T00:53:58;5.70;;;3.15;;
45338;SDS011;31071;51.478;5.710;2022-10-16T00:56:24;4.60;;;2.90;;
45338;SDS011;31071;51.478;5.710;2022-10-16T00:58:50;6.68;;;3.65;;
45338;SDS011;31071;51.478;5.710;2022-10-16T01:01:16;7.30;;;3.53;;
45338;SDS011;31071;51.478;5.710;2022-10-16T01:03:42;6.35;;;3.42;;
45338;SDS011;31071;51.478;5.710;2022-10-16T01:06:10;4.15;;;3.00;;
45338;SDS011;31071;51.478;5.710;2022-10-16T01:08:58;6.68;;;3.28;;
45338;SDS011;31071;51.478;5.710;2022-10-16T01:25:39;6.07;;;3.45;;
45338;SDS011;31071;51.478;5.710;2022-10-16T01:28:32;6.13;;;3.35;;
45338;SDS011;31071;51.478;5.710;2022-10-16T01:31:03;8.05;;;3.80;;
45338;SDS011;31071;51.478;5.710;2022-10-16T01:33:54;5.43;;;3.35;;
45338;SDS011;31071;51.478;5.710;2022-10-16T01:36:23;5.30;;;3.50;;
45338;SDS011;31071;51.478;5.710;2022-10-16T01:38:53;8.50;;;3.83;;
45338;SDS011;31071;51.478;5.710;2022-10-16T01:41:27;4.40;;;3.67;;
45338;SDS011;31071;51.478;5.710;2022-10-16T01:43:57;5.25;;;3.58;;
45338;SDS011;31071;51.478;5.710;2022-10-16T01:46:32;4.82;;;3.25;;
45338;SDS011;31071;51.478;5.710;2022-10-16T01:49:01;3.83;;;2.88;;
45338;SDS011;31071;51.478;5.710;2022-10-16T01:51:28;5.75;;;2.90;;
45338;SDS011;31071;51.478;5.710;2022-10-16T01:53:55;4.03;;;2.88;;
45338;SDS011;31071;51.478;5.710;2022-10-16T01:56:24;4.53;;;3.10;;
45338;SDS011;31071;51.478;5.710;2022-10-16T01:59:24;3.80;;;3.00;;
45338;SDS011;31071;51.478;5.710;2022-10-16T02:01:45;3.65;;;2.58;;
45338;SDS011;31071;51.478;5.710;2022-10-16T02:04:26;6.95;;;2.90;;
45338;SDS011;31071;51.478;5.710;2022-10-16T02:06:55;3.38;;;2.80;;
45338;SDS011;31071;51.478;5.710;2022-10-16T02:09:21;3.22;;;2.50;;
45338;SDS011;31071;51.478;5.710;2022-10-16T02:11:47;3.75;;;2.45;;
45338;SDS011;31071;51.478;5.710;2022-10-16T02:14:14;3.22;;;2.30;;
45338;SDS011;31071;51.478;5.710;2022-10-16T02:16:41;3.85;;;2.80;;
45338;SDS011;31071;51.478;5.710;2022-10-16T02:19:08;3.45;;;2.50;;
45338;SDS011;31071;51.478;5.710;2022-10-16T02:21:43;5.35;;;2.38;;
45338;SDS011;31071;51.478;5.710;2022-10-16T02:27:18;2.70;;;2.42;;
45338;SDS011;31071;51.478;5.710;2022-10-16T02:29:51;3.60;;;2.40;;
45338;SDS011;31071;51.478;5.710;2022-10-16T02:32:23;4.68;;;2.40;;
45338;SDS011;31071;51.478;5.710;2022-10-16T02:34:53;3.03;;;2.47;;
45338;SDS011;31071;51.478;5.710;2022-10-16T02:37:19;4.18;;;2.33;;
45338;SDS011;31071;51.478;5.710;2022-10-16T02:39:45;4.15;;;2.67;;
45338;SDS011;31071;51.478;5.710;2022-10-16T02:42:11;4.05;;;2.60;;
45338;SDS011;31071;51.478;5.710;2022-10-16T02:44:37;2.80;;;2.47;;
45338;SDS011;31071;51.478;5.710;2022-10-16T02:47:03;3.80;;;2.75;;
45338;SDS011;31071;51.478;5.710;2022-10-16T02:49:28;5.10;;;3.17;;
45338;SDS011;31071;51.478;5.710;2022-10-16T02:51:54;4.18;;;3.03;;
45338;SDS011;31071;51.478;5.710;2022-10-16T02:54:19;6.88;;;3.20;;
45338;SDS011;31071;51.478;5.710;2022-10-16T02:56:45;7.00;;;3.50;;
45338;SDS011;31071;51.478;5.710;2022-10-16T02:59:10;4.28;;;2.95;;
45338;SDS011;31071;51.478;5.710;2022-10-16T03:01:36;7.00;;;3.15;;
45338;SDS011;31071;51.478;5.710;2022-10-16T03:04:02;8.20;;;3.75;;
45338;SDS011;31071;51.478;5.710;2022-10-16T03:06:27;5.75;;;3.25;;
45338;SDS011;31071;51.478;5.710;2022-10-16T03:08:53;10.32;;;3.45;;
45338;SDS011;31071;51.478;5.710;2022-10-16T03:11:18;6.28;;;2.97;;
45338;SDS011;31071;51.478;5.710;2022-10-16T03:13:44;3.08;;;2.67;;
45338;SDS011;31071;51.478;5.710;2022-10-16T03:16:09;4.05;;;2.75;;
45338;SDS011;31071;51.478;5.710;2022-10-16T03:18:35;6.05;;;2.63;;
45338;SDS011;31071;51.478;5.710;2022-10-16T03:21:00;6.55;;;2.40;;
45338;SDS011;31071;51.478;5.710;2022-10-16T03:23:29;3.05;;;2.08;;
45338;SDS011;31071;51.478;5.710;2022-10-16T03:25:54;5.70;;;2.40;;
45338;SDS011;31071;51.478;5.710;2022-10-16T03:28:20;3.67;;;2.08;;
45338;SDS011;31071;51.478;5.710;2022-10-16T03:30:46;9.30;;;2.58;;
45338;SDS011;31071;51.478;5.710;2022-10-16T03:33:11;2.72;;;2.13;;
45338;SDS011;31071;51.478;5.710;2022-10-16T03:35:37;4.38;;;2.20;;
45338;SDS011;31071;51.478;5.710;2022-10-16T03:38:02;7.60;;;2.08;;
45338;SDS011;31071;51.478;5.710;2022-10-16T03:40:28;5.90;;;2.35;;
45338;SDS011;31071;51.478;5.710;2022-10-16T03:42:54;2.47;;;2.20;;
45338;SDS011;31071;51.478;5.710;2022-10-16T03:45:22;5.47;;;2.20;;
45338;SDS011;31071;51.478;5.710;2022-10-16T03:47:48;5.40;;;2.53;;
45338;SDS011;31071;51.478;5.710;2022-10-16T03:50:13;3.35;;;2.35;;
45338;SDS011;31071;51.478;5.710;2022-10-16T03:52:39;7.70;;;2.30;;
45338;SDS011;31071;51.478;5.710;2022-10-16T03:55:07;2.72;;;2.42;;
45338;SDS011;31071;51.478;5.710;2022-10-16T03:57:32;4.55;;;2.03;;
45338;SDS011;31071;51.478;5.710;2022-10-16T03:59:58;4.05;;;2.53;;
45338;SDS011;31071;51.478;5.710;2022-10-16T04:02:24;3.75;;;2.13;;
45338;SDS011;31071;51.478;5.710;2022-10-16T04:04:50;4.22;;;2.00;;
45338;SDS011;31071;51.478;5.710;2022-10-16T04:07:15;3.20;;;2.30;;
45338;SDS011;31071;51.478;5.710;2022-10-16T04:09:41;4.68;;;2.40;;
45338;SDS011;31071;51.478;5.710;2022-10-16T04:12:06;5.55;;;2.58;;
45338;SDS011;31071;51.478;5.710;2022-10-16T04:14:32;2.63;;;2.38;;
45338;SDS011;31071;51.478;5.710;2022-10-16T04:16:58;3.92;;;2.15;;
45338;SDS011;31071;51.478;5.710;2022-10-16T04:19:23;4.60;;;2.50;;
45338;SDS011;31071;51.478;5.710;2022-10-16T04:21:49;5.22;;;1.98;;
45338;SDS011;31071;51.478;5.710;2022-10-16T04:24:14;4.07;;;2.08;;
45338;SDS011;31071;51.478;5.710;2022-10-16T04:26:40;3.08;;;2.15;;
45338;SDS011;31071;51.478;5.710;2022-10-16T04:29:05;5.93;;;2.33;;
45338;SDS011;31071;51.478;5.710;2022-10-16T04:31:31;5.40;;;2.30;;
45338;SDS011;31071;51.478;5.710;2022-10-16T04:33:57;3.40;;;2.17;;
45338;SDS011;31071;51.478;5.710;2022-10-16T04:36:23;7.13;;;2.50;;
45338;SDS011;31071;51.478;5.710;2022-10-16T04:38:49;3.50;;;2.20;;
45338;SDS011;31071;51.478;5.710;2022-10-16T04:41:14;5.43;;;2.30;;
45338;SDS011;31071;51.478;5.710;2022-10-16T04:43:40;4.25;;;2.25;;
45338;SDS011;31071;51.478;5.710;2022-10-16T04:46:05;3.15;;;1.90;;
45338;SDS011;31071;51.478;5.710;2022-10-16T04:48:31;3.47;;;2.00;;
45338;SDS011;31071;51.478;5.710;2022-10-16T04:51:05;4.88;;;2.40;;
45338;SDS011;31071;51.478;5.710;2022-10-16T04:53:30;5.00;;;1.90;;
45338;SDS011;31071;51.478;5.710;2022-10-16T04:55:56;5.22;;;1.95;;
45338;SDS011;31071;51.478;5.710;2022-10-16T04:58:22;3.42;;;2.10;;
45338;SDS011;31071;51.478;5.710;2022-10-16T05:00:47;2.90;;;2.30;;
45338;SDS011;31071;51.478;5.710;2022-10-16T05:03:13;3.58;;;1.70;;
45338;SDS011;31071;51.478;5.710;2022-10-16T05:05:42;4.30;;;2.20;;
45338;SDS011;31071;51.478;5.710;2022-10-16T05:08:09;4.03;;;2.75;;
45338;SDS011;31071;51.478;5.710;2022-10-16T05:10:35;5.97;;;2.33;;
45338;SDS011;31071;51.478;5.710;2022-10-16T05:13:00;3.88;;;2.60;;
45338;SDS011;31071;51.478;5.710;2022-10-16T05:15:26;7.00;;;2.55;;
45338;SDS011;31071;51.478;5.710;2022-10-16T05:17:53;3.88;;;2.60;;
45338;SDS011;31071;51.478;5.710;2022-10-16T05:20:18;6.25;;;2.60;;
45338;SDS011;31071;51.478;5.710;2022-10-16T05:22:44;4.05;;;2.35;;
45338;SDS011;31071;51.478;5.710;2022-10-16T05:25:10;3.78;;;2.47;;
45338;SDS011;31071;51.478;5.710;2022-10-16T05:27:36;7.10;;;2.28;;
45338;SDS011;31071;51.478;5.710;2022-10-16T05:30:01;5.75;;;2.78;;
45338;SDS011;31071;51.478;5.710;2022-10-16T05:32:27;4.65;;;2.38;;
45338;SDS011;31071;51.478;5.710;2022-10-16T05:34:53;4.75;;;2.50;;
45338;SDS011;31071;51.478;5.710;2022-10-16T05:37:18;5.47;;;2.30;;
45338;SDS011;31071;51.478;5.710;2022-10-16T05:39:44;5.63;;;2.50;;
45338;SDS011;31071;51.478;5.710;2022-10-16T05:42:09;4.20;;;2.45;;
45338;SDS011;31071;51.478;5.710;2022-10-16T05:44:38;4.20;;;2.40;;
45338;SDS011;31071;51.478;5.710;2022-10-16T05:47:03;4.63;;;2.65;;
45338;SDS011;31071;51.478;5.710;2022-10-16T05:49:29;6.30;;;2.67;;
45338;SDS011;31071;51.478;5.710;2022-10-16T05:51:55;7.03;;;2.40;;
45338;SDS011;31071;51.478;5.710;2022-10-16T05:54:20;6.03;;;2.78;;
45338;SDS011;31071;51.478;5.710;2022-10-16T05:56:46;5.10;;;2.60;;
45338;SDS011;31071;51.478;5.710;2022-10-16T05:59:11;5.13;;;2.83;;
45338;SDS011;31071;51.478;5.710;2022-10-16T06:01:37;5.30;;;2.95;;
45338;SDS011;31071;51.478;5.710;2022-10-16T06:04:02;4.18;;;2.90;;
45338;SDS011;31071;51.478;5.710;2022-10-16T06:06:28;7.38;;;2.70;;
45338;SDS011;31071;51.478;5.710;2022-10-16T06:08:55;7.47;;;2.85;;
45338;SDS011;31071;51.478;5.710;2022-10-16T06:11:22;5.03;;;2.75;;
45338;SDS011;31071;51.478;5.710;2022-10-16T06:13:50;4.97;;;2.63;;
45338;SDS011;31071;51.478;5.710;2022-10-16T06:16:21;4.47;;;2.72;;
45338;SDS011;31071;51.478;5.710;2022-10-16T06:18:48;6.90;;;3.33;;
45338;SDS011;31071;51.478;5.710;2022-10-16T06:21:17;5.22;;;2.85;;
45338;SDS011;31071;51.478;5.710;2022-10-16T06:23:45;4.45;;;2.47;;
45338;SDS011;31071;51.478;5.710;2022-10-16T06:26:12;5.80;;;2.78;;
45338;SDS011;31071;51.478;5.710;2022-10-16T06:28:39;4.25;;;2.83;;
45338;SDS011;31071;51.478;5.710;2022-10-16T06:31:06;5.32;;;2.88;;
45338;SDS011;31071;51.478;5.710;2022-10-16T06:33:33;7.85;;;2.83;;
45338;SDS011;31071;51.478;5.710;2022-10-16T06:36:02;4.15;;;2.60;;
45338;SDS011;31071;51.478;5.710;2022-10-16T06:38:33;4.97;;;2.92;;
45338;SDS011;31071;51.478;5.710;2022-10-16T06:40:58;3.45;;;2.63;;
45338;SDS011;31071;51.478;5.710;2022-10-16T06:43:24;6.70;;;2.90;;
45338;SDS011;31071;51.478;5.710;2022-10-16T06:45:51;5.10;;;2.97;;
45338;SDS011;31071;51.478;5.710;2022-10-16T06:48:21;4.30;;;2.90;;
45338;SDS011;31071;51.478;5.710;2022-10-16T06:51:00;4.28;;;3.13;;
45338;SDS011;31071;51.478;5.710;2022-10-16T06:53:37;5.75;;;3.42;;
45338;SDS011;31071;51.478;5.710;2022-10-16T06:56:08;5.40;;;2.90;;
45338;SDS011;31071;51.478;5.710;2022-10-16T06:58:35;4.28;;;2.80;;
45338;SDS011;31071;51.478;5.710;2022-10-16T07:01:01;5.90;;;2.75;;
45338;SDS011;31071;51.478;5.710;2022-10-16T07:03:27;4.82;;;2.95;;
45338;SDS011;31071;51.478;5.710;2022-10-16T07:05:52;6.47;;;2.78;;
45338;SDS011;31071;51.478;5.710;2022-10-16T07:08:18;6.53;;;2.92;;
45338;SDS011;31071;51.478;5.710;2022-10-16T07:10:43;4.38;;;2.95;;
45338;SDS011;31071;51.478;5.710;2022-10-16T07:13:09;4.75;;;2.78;;
45338;SDS011;31071;51.478;5.710;2022-10-16T07:15:40;6.07;;;2.65;;
45338;SDS011;31071;51.478;5.710;2022-10-16T07:18:06;7.28;;;3.13;;
45338;SDS011;31071;51.478;5.710;2022-10-16T07:20:32;7.47;;;2.88;;
45338;SDS011;31071;51.478;5.710;2022-10-16T07:22:58;3.38;;;2.88;;
45338;SDS011;31071;51.478;5.710;2022-10-16T07:25:23;7.07;;;2.70;;
45338;SDS011;31071;51.478;5.710;2022-10-16T07:27:49;7.95;;;2.88;;
45338;SDS011;31071;51.478;5.710;2022-10-16T07:30:15;6.43;;;2.65;;
45338;SDS011;31071;51.478;5.710;2022-10-16T07:32:40;3.55;;;2.33;;
45338;SDS011;31071;51.478;5.710;2022-10-16T07:35:08;7.47;;;3.50;;
45338;SDS011;31071;51.478;5.710;2022-10-16T07:37:37;4.97;;;2.90;;
45338;SDS011;31071;51.478;5.710;2022-10-16T07:40:06;6.80;;;2.83;;
45338;SDS011;31071;51.478;5.710;2022-10-16T07:42:43;6.60;;;2.65;;
45338;SDS011;31071;51.478;5.710;2022-10-16T07:45:09;6.85;;;2.67;;
45338;SDS011;31071;51.478;5.710;2022-10-16T07:47:36;8.52;;;2.90;;
45338;SDS011;31071;51.478;5.710;2022-10-16T07:50:03;6.10;;;2.47;;
45338;SDS011;31071;51.478;5.710;2022-10-16T07:52:30;3.88;;;2.90;;
45338;SDS011;31071;51.478;5.710;2022-10-16T07:54:56;6.57;;;2.70;;
45338;SDS011;31071;51.478;5.710;2022-10-16T07:57:23;4.88;;;3.05;;
45338;SDS011;31071;51.478;5.710;2022-10-16T07:59:50;7.22;;;2.53;;
45338;SDS011;31071;51.478;5.710;2022-10-16T08:02:16;3.50;;;2.40;;
45338;SDS011;31071;51.478;5.710;2022-10-16T08:04:42;4.95;;;3.08;;
45338;SDS011;31071;51.478;5.710;2022-10-16T08:07:08;5.63;;;2.50;;
45338;SDS011;31071;51.478;5.710;2022-10-16T08:09:33;4.00;;;2.22;;
45338;SDS011;31071;51.478;5.710;2022-10-16T08:11:59;7.18;;;2.83;;
45338;SDS011;31071;51.478;5.710;2022-10-16T08:14:31;4.55;;;2.72;;
45338;SDS011;31071;51.478;5.710;2022-10-16T08:16:57;10.30;;;2.50;;
45338;SDS011;31071;51.478;5.710;2022-10-16T08:19:23;3.78;;;2.88;;
45338;SDS011;31071;51.478;5.710;2022-10-16T08:21:48;4.50;;;2.28;;
45338;SDS011;31071;51.478;5.710;2022-10-16T08:24:14;4.88;;;3.13;;
45338;SDS011;31071;51.478;5.710;2022-10-16T08:26:40;3.22;;;2.63;;
45338;SDS011;31071;51.478;5.710;2022-10-16T08:29:16;5.07;;;2.25;;
45338;SDS011;31071;51.478;5.710;2022-10-16T08:31:41;4.00;;;2.50;;
45338;SDS011;31071;51.478;5.710;2022-10-16T08:34:09;5.05;;;2.30;;
45338;SDS011;31071;51.478;5.710;2022-10-16T08:36:34;4.20;;;2.45;;
45338;SDS011;31071;51.478;5.710;2022-10-16T08:39:00;6.68;;;2.10;;
45338;SDS011;31071;51.478;5.710;2022-10-16T08:46:50;6.55;;;1.70;;
45338;SDS011;31071;51.478;5.710;2022-10-16T08:49:37;4.78;;;1.80;;
45338;SDS011;31071;51.478;5.710;2022-10-16T08:52:07;3.47;;;1.73;;
45338;SDS011;31071;51.478;5.710;2022-10-16T08:57:21;4.57;;;1.80;;
45338;SDS011;31071;51.478;5.710;2022-10-16T08:59:59;7.10;;;1.65;;
45338;SDS011;31071;51.478;5.710;2022-10-16T09:02:35;5.90;;;1.83;;
45338;SDS011;31071;51.478;5.710;2022-10-16T09:08:28;6.07;;;2.00;;
45338;SDS011;31071;51.478;5.710;2022-10-16T09:10:57;2.88;;;1.20;;
45338;SDS011;31071;51.478;5.710;2022-10-16T09:16:30;5.30;;;1.73;;
45338;SDS011;31071;51.478;5.710;2022-10-16T09:19:02;4.78;;;1.95;;
45338;SDS011;31071;51.478;5.710;2022-10-16T09:21:41;2.97;;;1.27;;
45338;SDS011;31071;51.478;5.710;2022-10-16T09:24:18;6.47;;;1.60;;
45338;SDS011;31071;51.478;5.710;2022-10-16T09:26:45;4.18;;;1.30;;
45338;SDS011;31071;51.478;5.710;2022-10-16T09:29:12;5.45;;;2.00;;
45338;SDS011;31071;51.478;5.710;2022-10-16T09:31:44;4.95;;;1.15;;
45338;SDS011;31071;51.478;5.710;2022-10-16T09:34:17;5.97;;;1.38;;
45338;SDS011;31071;51.478;5.710;2022-10-16T09:36:52;6.20;;;1.50;;
45338;SDS011;31071;51.478;5.710;2022-10-16T09:39:18;4.45;;;1.58;;
45338;SDS011;31071;51.478;5.710;2022-10-16T09:41:44;4.65;;;1.50;;
45338;SDS011;31071;51.478;5.710;2022-10-16T09:47:00;5.22;;;1.48;;
45338;SDS011;31071;51.478;5.710;2022-10-16T09:49:30;2.83;;;1.50;;
45338;SDS011;31071;51.478;5.710;2022-10-16T09:52:03;5.90;;;1.67;;
45338;SDS011;31071;51.478;5.710;2022-10-16T09:54:48;6.25;;;1.30;;
45338;SDS011;31071;51.478;5.710;2022-10-16T09:57:18;5.60;;;1.38;;
45338;SDS011;31071;51.478;5.710;2022-10-16T09:59:51;2.67;;;1.00;;
45338;SDS011;31071;51.478;5.710;2022-10-16T10:02:29;6.32;;;1.70;;
45338;SDS011;31071;51.478;5.710;2022-10-16T10:04:56;4.97;;;1.70;;
45338;SDS011;31071;51.478;5.710;2022-10-16T10:07:26;4.07;;;1.45;;
45338;SDS011;31071;51.478;5.710;2022-10-16T10:09:57;4.05;;;1.55;;
45338;SDS011;31071;51.478;5.710;2022-10-16T10:12:23;4.82;;;1.77;;
45338;SDS011;31071;51.478;5.710;2022-10-16T10:14:55;7.55;;;1.70;;
45338;SDS011;31071;51.478;5.710;2022-10-16T10:17:23;9.80;;;1.92;;
45338;SDS011;31071;51.478;5.710;2022-10-16T10:42:53;4.07;;;1.30;;
45338;SDS011;31071;51.478;5.710;2022-10-16T10:45:41;7.20;;;1.85;;
45338;SDS011;31071;51.478;5.710;2022-10-16T10:48:18;6.20;;;1.60;;
45338;SDS011;31071;51.478;5.710;2022-10-16T10:50:53;7.73;;;1.60;;
45338;SDS011;31071;51.478;5.710;2022-10-16T10:53:29;4.93;;;1.40;;
45338;SDS011;31071;51.478;5.710;2022-10-16T11:04:59;7.85;;;1.90;;
45338;SDS011;31071;51.478;5.710;2022-10-16T11:08:11;5.57;;;1.65;;
45338;SDS011;31071;51.478;5.710;2022-10-16T11:10:48;8.38;;;1.90;;
45338;SDS011;31071;51.478;5.710;2022-10-16T11:13:21;6.07;;;1.50;;
45338;SDS011;31071;51.478;5.710;2022-10-16T11:16:25;7.53;;;1.40;;
45338;SDS011;31071;51.478;5.710;2022-10-16T11:21:47;4.90;;;1.80;;
45338;SDS011;31071;51.478;5.710;2022-10-16T11:27:12;9.15;;;1.98;;
45338;SDS011;31071;51.478;5.710;2022-10-16T11:30:06;13.35;;;2.53;;
45338;SDS011;31071;51.478;5.710;2022-10-16T11:35:51;5.82;;;1.58;;
45338;SDS011;31071;51.478;5.710;2022-10-16T11:38:29;7.28;;;1.33;;
45338;SDS011;31071;51.478;5.710;2022-10-16T11:41:11;4.97;;;1.48;;
45338;SDS011;31071;51.478;5.710;2022-10-16T11:43:52;9.35;;;4.25;;
45338;SDS011;31071;51.478;5.710;2022-10-16T11:46:20;5.93;;;1.20;;
45338;SDS011;31071;51.478;5.710;2022-10-16T11:48:54;5.18;;;1.48;;
45338;SDS011;31071;51.478;5.710;2022-10-16T11:57:23;7.50;;;1.63;;
45338;SDS011;31071;51.478;5.710;2022-10-16T12:00:37;3.80;;;1.55;;
45338;SDS011;31071;51.478;5.710;2022-10-16T12:08:17;6.68;;;1.50;;
45338;SDS011;31071;51.478;5.710;2022-10-16T12:10:44;3.83;;;1.10;;
45338;SDS011;31071;51.478;5.710;2022-10-16T12:13:30;6.32;;;1.50;;
45338;SDS011;31071;51.478;5.710;2022-10-16T12:16:34;6.43;;;1.50;;
45338;SDS011;31071;51.478;5.710;2022-10-16T12:19:03;5.03;;;1.35;;
45338;SDS011;31071;51.478;5.710;2022-10-16T12:21:38;6.70;;;1.23;;
45338;SDS011;31071;51.478;5.710;2022-10-16T12:24:04;4.32;;;1.48;;
45338;SDS011;31071;51.478;5.710;2022-10-16T12:26:34;4.95;;;1.38;;
45338;SDS011;31071;51.478;5.710;2022-10-16T12:31:57;6.13;;;1.08;;
45338;SDS011;31071;51.478;5.710;2022-10-16T12:34:26;3.40;;;1.05;;
45338;SDS011;31071;51.478;5.710;2022-10-16T12:37:24;6.55;;;1.02;;
45338;SDS011;31071;51.478;5.710;2022-10-16T12:39:56;5.40;;;1.42;;
45338;SDS011;31071;51.478;5.710;2022-10-16T12:42:30;3.42;;;1.40;;
45338;SDS011;31071;51.478;5.710;2022-10-16T12:44:58;5.72;;;1.48;;
45338;SDS011;31071;51.478;5.710;2022-10-16T12:49:59;4.88;;;1.52;;
45338;SDS011;31071;51.478;5.710;2022-10-16T12:52:34;8.00;;;1.20;;
45338;SDS011;31071;51.478;5.710;2022-10-16T12:55:02;5.45;;;1.23;;
45338;SDS011;31071;51.478;5.710;2022-10-16T12:57:50;5.07;;;1.45;;
45338;SDS011;31071;51.478;5.710;2022-10-16T13:03:24;2.67;;;1.00;;
45338;SDS011;31071;51.478;5.710;2022-10-16T13:06:20;4.63;;;0.95;;
45338;SDS011;31071;51.478;5.710;2022-10-16T13:16:50;5.68;;;1.58;;
45338;SDS011;31071;51.478;5.710;2022-10-16T13:19:41;5.22;;;1.10;;
45338;SDS011;31071;51.478;5.710;2022-10-16T13:22:21;6.50;;;1.23;;
45338;SDS011;31071;51.478;5.710;2022-10-16T13:27:41;5.60;;;1.30;;
45338;SDS011;31071;51.478;5.710;2022-10-16T13:30:42;5.85;;;1.13;;
45338;SDS011;31071;51.478;5.710;2022-10-16T13:36:04;4.43;;;1.30;;
45338;SDS011;31071;51.478;5.710;2022-10-16T13:38:31;5.30;;;1.35;;
45338;SDS011;31071;51.478;5.710;2022-10-16T13:41:05;6.40;;;1.60;;
45338;SDS011;31071;51.478;5.710;2022-10-16T13:43:52;5.38;;;1.40;;
45338;SDS011;31071;51.478;5.710;2022-10-16T13:46:21;6.47;;;1.33;;
45338;SDS011;31071;51.478;5.710;2022-10-16T13:48:58;5.78;;;1.48;;
45338;SDS011;31071;51.478;5.710;2022-10-16T13:51:25;4.40;;;1.25;;
45338;SDS011;31071;51.478;5.710;2022-10-16T13:53:53;4.47;;;1.30;;
45338;SDS011;31071;51.478;5.710;2022-10-16T13:56:21;6.68;;;1.50;;
45338;SDS011;31071;51.478;5.710;2022-10-16T13:58:59;3.47;;;1.00;;
45338;SDS011;31071;51.478;5.710;2022-10-16T14:01:33;4.22;;;1.15;;
45338;SDS011;31071;51.478;5.710;2022-10-16T14:04:08;4.65;;;1.23;;
45338;SDS011;31071;51.478;5.710;2022-10-16T14:06:42;2.95;;;1.17;;
45338;SDS011;31071;51.478;5.710;2022-10-16T14:11:48;5.80;;;1.48;;
45338;SDS011;31071;51.478;5.710;2022-10-16T14:14:16;6.15;;;1.25;;
45338;SDS011;31071;51.478;5.710;2022-10-16T14:16:43;4.45;;;1.17;;
45338;SDS011;31071;51.478;5.710;2022-10-16T14:19:45;11.00;;;1.50;;
45338;SDS011;31071;51.478;5.710;2022-10-16T14:22:01;6.50;;;1.10;;
45338;SDS011;31071;51.478;5.710;2022-10-16T14:26:57;5.40;;;1.30;;
45338;SDS011;31071;51.478;5.710;2022-10-16T14:29:24;5.20;;;1.52;;
45338;SDS011;31071;51.478;5.710;2022-10-16T14:31:59;4.70;;;1.98;;
45338;SDS011;31071;51.478;5.710;2022-10-16T14:34:34;5.72;;;1.33;;
45338;SDS011;31071;51.478;5.710;2022-10-16T14:37:23;5.78;;;1.13;;
45338;SDS011;31071;51.478;5.710;2022-10-16T14:39:50;6.50;;;1.48;;
45338;SDS011;31071;51.478;5.710;2022-10-16T14:42:17;4.55;;;1.10;;
45338;SDS011;31071;51.478;5.710;2022-10-16T14:44:45;5.22;;;1.50;;
45338;SDS011;31071;51.478;5.710;2022-10-16T14:47:16;4.75;;;1.20;;
45338;SDS011;31071;51.478;5.710;2022-10-16T14:49:47;6.30;;;1.30;;
45338;SDS011;31071;51.478;5.710;2022-10-16T14:52:13;6.38;;;1.52;;
45338;SDS011;31071;51.478;5.710;2022-10-16T14:54:40;6.75;;;2.20;;
45338;SDS011;31071;51.478;5.710;2022-10-16T14:57:13;6.38;;;1.35;;
45338;SDS011;31071;51.478;5.710;2022-10-16T14:59:45;5.22;;;1.65;;
45338;SDS011;31071;51.478;5.710;2022-10-16T15:04:56;6.40;;;1.30;;
45338;SDS011;31071;51.478;5.710;2022-10-16T15:07:23;7.60;;;1.50;;
45338;SDS011;31071;51.478;5.710;2022-10-16T15:09:49;6.20;;;1.50;;
45338;SDS011;31071;51.478;5.710;2022-10-16T15:12:15;3.60;;;1.30;;
45338;SDS011;31071;51.478;5.710;2022-10-16T15:14:41;6.65;;;1.38;;
45338;SDS011;31071;51.478;5.710;2022-10-16T15:17:10;5.75;;;1.42;;
45338;SDS011;31071;51.478;5.710;2022-10-16T15:19:36;6.10;;;1.30;;
45338;SDS011;31071;51.478;5.710;2022-10-16T15:22:02;5.18;;;1.25;;
45338;SDS011;31071;51.478;5.710;2022-10-16T15:24:28;3.65;;;1.10;;
45338;SDS011;31071;51.478;5.710;2022-10-16T15:26:53;5.13;;;1.33;;
45338;SDS011;31071;51.478;5.710;2022-10-16T15:29:19;4.40;;;1.70;;
45338;SDS011;31071;51.478;5.710;2022-10-16T15:31:45;4.07;;;1.50;;
45338;SDS011;31071;51.478;5.710;2022-10-16T15:34:13;3.80;;;1.30;;
45338;SDS011;31071;51.478;5.710;2022-10-16T15:36:39;6.60;;;1.45;;
45338;SDS011;31071;51.478;5.710;2022-10-16T15:39:23;4.72;;;1.58;;
45338;SDS011;31071;51.478;5.710;2022-10-16T15:41:49;4.18;;;1.52;;
45338;SDS011;31071;51.478;5.710;2022-10-16T15:44:18;5.38;;;1.80;;
45338;SDS011;31071;51.478;5.710;2022-10-16T15:46:45;4.85;;;1.70;;
45338;SDS011;31071;51.478;5.710;2022-10-16T15:49:11;2.55;;;1.90;;
45338;SDS011;31071;51.478;5.710;2022-10-16T15:51:38;4.18;;;1.83;;
45338;SDS011;31071;51.478;5.710;2022-10-16T15:54:05;4.90;;;1.50;;
45338;SDS011;31071;51.478;5.710;2022-10-16T15:56:31;6.88;;;1.60;;
45338;SDS011;31071;51.478;5.710;2022-10-16T15:58:58;2.85;;;1.60;;
45338;SDS011;31071;51.478;5.710;2022-10-16T16:01:25;2.38;;;1.38;;
45338;SDS011;31071;51.478;5.710;2022-10-16T16:03:54;6.13;;;1.38;;
45338;SDS011;31071;51.478;5.710;2022-10-16T16:06:20;11.50;;;1.80;;
45338;SDS011;31071;51.478;5.710;2022-10-16T16:08:46;6.55;;;1.60;;
45338;SDS011;31071;51.478;5.710;2022-10-16T16:11:13;6.95;;;1.45;;
45338;SDS011;31071;51.478;5.710;2022-10-16T16:13:40;9.25;;;1.80;;
45338;SDS011;31071;51.478;5.710;2022-10-16T16:16:07;12.70;;;1.65;;
45338;SDS011;31071;51.478;5.710;2022-10-16T16:18:33;7.38;;;1.65;;
45338;SDS011;31071;51.478;5.710;2022-10-16T16:20:59;10.90;;;1.55;;
45338;SDS011;31071;51.478;5.710;2022-10-16T16:23:24;11.38;;;1.50;;
45338;SDS011;31071;51.478;5.710;2022-10-16T16:28:51;6.15;;;1.92;;
45338;SDS011;31071;51.478;5.710;2022-10-16T16:31:18;8.50;;;1.38;;
45338;SDS011;31071;51.478;5.710;2022-10-16T16:33:43;6.28;;;1.30;;
45338;SDS011;31071;51.478;5.710;2022-10-16T16:36:09;10.13;;;2.13;;
45338;SDS011;31071;51.478;5.710;2022-10-16T16:38:34;11.90;;;1.73;;
45338;SDS011;31071;51.478;5.710;2022-10-16T16:41:10;5.03;;;1.35;;
45338;SDS011;31071;51.478;5.710;2022-10-16T16:43:40;5.10;;;1.55;;
45338;SDS011;31071;51.478;5.710;2022-10-16T16:46:06;11.20;;;1.85;;
45338;SDS011;31071;51.478;5.710;2022-10-16T16:48:32;11.70;;;1.92;;
45338;SDS011;31071;51.478;5.710;2022-10-16T16:51:02;9.80;;;1.52;;
45338;SDS011;31071;51.478;5.710;2022-10-16T16:53:29;6.60;;;1.38;;
45338;SDS011;31071;51.478;5.710;2022-10-16T16:55:55;8.10;;;1.58;;
45338;SDS011;31071;51.478;5.710;2022-10-16T16:58:29;7.63;;;1.30;;
45338;SDS011;31071;51.478;5.710;2022-10-16T17:00:55;10.90;;;1.80;;
45338;SDS011;31071;51.478;5.710;2022-10-16T17:03:21;10.93;;;1.60;;
45338;SDS011;31071;51.478;5.710;2022-10-16T17:06:03;6.90;;;1.70;;
45338;SDS011;31071;51.478;5.710;2022-10-16T17:08:35;9.00;;;1.77;;
45338;SDS011;31071;51.478;5.710;2022-10-16T17:11:02;12.13;;;2.03;;